Terminal Aerodrome Forecast
Issued by NWS

Home | Current Version | Previous Version | Text Only | Print | Product List | Glossary On
Versions: 1 2 3 4 5 6 7 8 9 10 11 12 13 14 15 16 17 18 19 20 21 22 23 24 25 26 27 28 29 30 31 32 33 34 35 36 37 38 39 40 41 42 43 44 45 46 47 48
000
FTUS42 KMFL 051743
TAFTMB
TAF
KTMB 051743Z 0518/0618 10008KT P6SM VCSH SCT025 BKN070
     FM052300 04007KT P6SM VCSH SCT025 BKN250
     FM060600 32005KT P6SM VCSH SCT025 BKN070
      TEMPO 0609/0612 BKN020
     FM061400 32006KT P6SM VCSH SCT025=

USA.gov is the U.S. government's official web portal to all federal, state and local government web resources and services.